Time,TemperatureF,DewpointF,PressureIn,WindDirection,WindDirectionDegrees,WindSpeedMPH,WindSpeedGustMPH,Humidity,HourlyPrecipIn,Conditions,Clouds,dailyrainin,SoftwareType,DateUTC
2013-09-06 00:01:00,67.1,59.3,29.78,WSW,250,0.0,0.0,76,0.00,,---,0.00,VWS V14.01,2013-09-06 07:01:00,
2013-09-06 00:11:00,66.8,59.0,29.78,WSW,250,0.0,0.0,76,0.00,,---,0.00,VWS V14.01,2013-09-06 07:11:00,
2013-09-06 00:16:00,66.6,59.2,29.77,WSW,250,0.0,0.0,77,0.00,,---,0.00,VWS V14.01,2013-09-06 07:16:00,
2013-09-06 00:26:00,66.3,58.9,29.77,WSW,250,0.0,0.0,77,0.00,,---,0.00,VWS V14.01,2013-09-06 07:26:00,
2013-09-06 00:36:00,66.0,59.0,29.77,WSW,250,0.0,0.0,78,0.00,,---,0.00,VWS V14.01,2013-09-06 07:36:00,
2013-09-06 00:41:00,66.0,59.0,29.77,WSW,250,0.0,0.0,78,0.00,,---,0.00,VWS V14.01,2013-09-06 07:41:00,
2013-09-06 00:46:00,65.8,58.8,29.77,WSW,250,0.0,0.0,78,0.00,,---,0.00,VWS V14.01,2013-09-06 07:46:00,
2013-09-06 00:51:00,65.6,58.6,29.77,WSW,250,0.0,0.0,78,0.00,,---,0.00,VWS V14.01,2013-09-06 07:51:00,
2013-09-06 01:01:00,65.5,58.5,29.76,WSW,250,0.0,0.0,78,0.00,,---,0.00,VWS V14.01,2013-09-06 08:01:00,
2013-09-06 01:11:00,65.3,58.6,29.76,WSW,250,0.0,0.0,79,0.00,,---,0.00,VWS V14.01,2013-09-06 08:11:00,
2013-09-06 01:21:00,65.2,58.5,29.76,WSW,250,0.0,0.0,79,0.00,,---,0.00,VWS V14.01,2013-09-06 08:21:00,
2013-09-06 01:26:00,65.0,58.3,29.76,WSW,250,0.0,0.0,79,0.00,,---,0.00,VWS V14.01,2013-09-06 08:26:00,
2013-09-06 01:31:00,65.0,58.3,29.76,WSW,250,0.0,0.0,79,0.00,,---,0.00,VWS V14.01,2013-09-06 08:31:00,
2013-09-06 01:36:00,64.8,58.1,29.76,WSW,250,0.0,0.0,79,0.00,,---,0.00,VWS V14.01,2013-09-06 08:36:00,
2013-09-06 01:46:00,64.7,58.0,29.76,WSW,250,0.0,0.0,79,0.00,,---,0.00,VWS V14.01,2013-09-06 08:46:00,
2013-09-06 01:51:00,64.5,57.8,29.76,WSW,250,0.0,0.0,79,0.00,,---,0.00,VWS V14.01,2013-09-06 08:51:00,
2013-09-06 02:01:00,64.2,57.6,29.76,WSW,250,0.0,0.0,79,0.00,,---,0.00,VWS V14.01,2013-09-06 09:01:00,
2013-09-06 02:11:00,64.0,57.4,29.76,WSW,250,0.0,0.0,79,0.00,,---,0.00,VWS V14.01,2013-09-06 09:11:00,
2013-09-06 02:21:00,63.7,57.1,29.75,WSW,250,0.0,0.0,79,0.00,,---,0.00,VWS V14.01,2013-09-06 09:21:00,
2013-09-06 02:26:00,63.5,56.9,29.75,WSW,250,0.0,0.0,79,0.00,,---,0.00,VWS V14.01,2013-09-06 09:26:00,
2013-09-06 02:36:00,63.5,57.2,29.75,WSW,250,0.0,0.0,80,0.00,,---,0.00,VWS V14.01,2013-09-06 09:36:00,
2013-09-06 02:46:00,63.4,57.1,29.75,WSW,250,0.0,0.0,80,0.00,,---,0.00,VWS V14.01,2013-09-06 09:46:00,
2013-09-06 02:51:00,63.4,57.1,29.75,WSW,250,0.0,0.0,80,0.00,,---,0.00,VWS V14.01,2013-09-06 09:51:00,
2013-09-06 02:56:00,63.4,57.1,29.75,WSW,250,0.0,0.0,80,0.00,,---,0.00,VWS V14.01,2013-09-06 09:56:00,
2013-09-06 03:06:00,63.4,57.1,29.75,WSW,250,0.0,0.0,80,0.00,,---,0.00,VWS V14.01,2013-09-06 10:06:00,
2013-09-06 03:11:00,63.4,57.1,29.75,WSW,250,0.0,0.0,80,0.00,,---,0.00,VWS V14.01,2013-09-06 10:11:00,
2013-09-06 03:21:00,63.2,56.9,29.74,WSW,250,0.0,0.0,80,0.00,,---,0.00,VWS V14.01,2013-09-06 10:21:00,
2013-09-06 03:31:00,63.2,57.3,29.74,WSW,250,0.0,0.0,81,0.00,,---,0.00,VWS V14.01,2013-09-06 10:31:00,
2013-09-06 03:36:00,63.1,57.2,29.74,WSW,250,0.0,0.0,81,0.00,,---,0.00,VWS V14.01,2013-09-06 10:36:00,
2013-09-06 03:41:00,63.1,57.2,29.74,WSW,250,0.0,0.0,81,0.00,,---,0.00,VWS V14.01,2013-09-06 10:41:00,
2013-09-06 03:46:00,63.1,57.2,29.74,WSW,250,0.0,0.0,81,0.00,,---,0.00,VWS V14.01,2013-09-06 10:46:00,
2013-09-06 03:51:00,63.1,57.2,29.74,WSW,250,0.0,0.0,81,0.00,,---,0.00,VWS V14.01,2013-09-06 10:51:00,
2013-09-06 04:01:00,62.9,57.0,29.74,WSW,250,0.0,0.0,81,0.00,,---,0.00,VWS V14.01,2013-09-06 11:01:00,
2013-09-06 04:06:00,62.7,56.5,29.74,WSW,250,0.0,0.0,80,0.00,,---,0.00,VWS V14.01,2013-09-06 11:06:00,
2013-09-06 04:11:00,62.7,56.5,29.74,WSW,250,0.0,0.0,80,0.00,,---,0.00,VWS V14.01,2013-09-06 11:11:00,
2013-09-06 04:21:00,62.7,56.8,29.74,WSW,250,0.0,0.0,81,0.00,,---,0.00,VWS V14.01,2013-09-06 11:21:00,
2013-09-06 04:26:00,62.9,56.6,29.74,WSW,250,0.0,0.0,80,0.00,,---,0.00,VWS V14.01,2013-09-06 11:26:00,
2013-09-06 04:31:00,62.7,56.5,29.74,WSW,250,0.0,0.0,80,0.00,,---,0.00,VWS V14.01,2013-09-06 11:31:00,
2013-09-06 04:41:00,62.7,56.5,29.74,WSW,250,0.0,0.0,80,0.00,,---,0.00,VWS V14.01,2013-09-06 11:41:00,
2013-09-06 04:46:00,62.6,56.3,29.74,WSW,250,0.0,0.0,80,0.00,,---,0.00,VWS V14.01,2013-09-06 11:46:00,
2013-09-06 04:56:00,62.7,56.5,29.74,WSW,250,0.0,0.0,80,0.00,,---,0.00,VWS V14.01,2013-09-06 11:56:00,
2013-09-06 05:01:00,62.7,56.5,29.74,WSW,250,0.0,0.0,80,0.00,,---,0.00,VWS V14.01,2013-09-06 12:01:00,
2013-09-06 05:11:00,62.7,56.1,29.74,WSW,250,0.0,0.0,79,0.00,,---,0.00,VWS V14.01,2013-09-06 12:11:00,
2013-09-06 05:16:00,62.7,56.1,29.74,WSW,250,0.0,0.0,79,0.00,,---,0.00,VWS V14.01,2013-09-06 12:16:00,
2013-09-06 05:21:00,62.6,56.0,29.74,WSW,250,0.0,0.0,79,0.00,,---,0.00,VWS V14.01,2013-09-06 12:21:00,
2013-09-06 05:26:00,62.6,56.0,29.74,WSW,250,0.0,0.0,79,0.00,,---,0.00,VWS V14.01,2013-09-06 12:26:00,
2013-09-06 05:31:00,62.6,56.0,29.75,WSW,250,0.0,0.0,79,0.00,,---,0.00,VWS V14.01,2013-09-06 12:31:00,
2013-09-06 05:36:00,62.6,56.0,29.75,WSW,250,0.0,0.0,79,0.00,,---,0.00,VWS V14.01,2013-09-06 12:36:00,
2013-09-06 05:41:00,62.7,56.1,29.75,WSW,250,0.0,0.0,79,0.00,,---,0.00,VWS V14.01,2013-09-06 12:41:00,
2013-09-06 05:46:00,62.7,56.5,29.75,WSW,250,0.0,0.0,80,0.00,,---,0.00,VWS V14.01,2013-09-06 12:46:00,
2013-09-06 05:51:00,62.7,56.1,29.75,WSW,250,0.0,0.0,79,0.00,,---,0.00,VWS V14.01,2013-09-06 12:51:00,
2013-09-06 05:56:00,62.7,56.1,29.75,WSW,250,0.0,0.0,79,0.00,,---,0.00,VWS V14.01,2013-09-06 12:56:00,
2013-09-06 06:01:00,62.7,56.1,29.75,WSW,250,0.0,0.0,79,0.00,,---,0.00,VWS V14.01,2013-09-06 13:01:00,
2013-09-06 06:11:00,62.7,56.1,29.75,WSW,250,0.0,0.0,79,0.00,,---,0.00,VWS V14.01,2013-09-06 13:11:00,
2013-09-06 06:16:00,62.9,56.3,29.76,WSW,250,0.0,0.0,79,0.00,,---,0.00,VWS V14.01,2013-09-06 13:16:00,
2013-09-06 06:21:00,62.9,56.3,29.76,WSW,250,0.0,0.0,79,0.00,,---,0.00,VWS V14.01,2013-09-06 13:21:00,
2013-09-06 06:26:00,62.9,56.3,29.76,WSW,250,0.0,0.0,79,0.00,,---,0.00,VWS V14.01,2013-09-06 13:26:00,
2013-09-06 06:36:00,62.7,56.1,29.76,WSW,250,0.0,0.0,79,0.00,,---,0.00,VWS V14.01,2013-09-06 13:36:00,
2013-09-06 06:41:00,62.7,56.1,29.76,WSW,250,0.0,0.0,79,0.00,,---,0.00,VWS V14.01,2013-09-06 13:41:00,
2013-09-06 06:51:00,62.7,55.8,29.76,WSW,250,0.0,0.0,78,0.00,,---,0.00,VWS V14.01,2013-09-06 13:51:00,
2013-09-06 07:01:00,62.9,55.9,29.77,WSW,250,0.0,0.0,78,0.00,,---,0.00,VWS V14.01,2013-09-06 14:01:00,
2013-09-06 07:06:00,62.9,56.3,29.77,WSW,250,0.0,0.0,79,0.00,,---,0.00,VWS V14.01,2013-09-06 14:06:00,
2013-09-06 07:11:00,63.1,56.5,29.77,WSW,250,0.0,0.0,79,0.00,,---,0.00,VWS V14.01,2013-09-06 14:11:00,
2013-09-06 07:16:00,63.2,56.6,29.77,WSW,250,0.0,0.0,79,0.00,,---,0.00,VWS V14.01,2013-09-06 14:16:00,
2013-09-06 07:21:00,63.4,56.8,29.77,WSW,250,0.0,0.0,79,0.00,,---,0.00,VWS V14.01,2013-09-06 14:21:00,
2013-09-06 07:31:00,63.9,57.3,29.78,WSW,250,0.0,0.0,79,0.00,,---,0.00,VWS V14.01,2013-09-06 14:31:00,
2013-09-06 07:36:00,64.3,58.0,29.78,WSW,250,0.0,0.0,80,0.00,,---,0.00,VWS V14.01,2013-09-06 14:36:00,
2013-09-06 07:41:00,66.3,59.6,29.78,WSW,250,0.0,0.0,79,0.00,,---,0.00,VWS V14.01,2013-09-06 14:41:00,
2013-09-06 07:46:00,68.6,59.2,29.78,WSW,250,0.0,0.0,72,0.00,,---,0.00,VWS V14.01,2013-09-06 14:46:00,
2013-09-06 07:56:00,71.6,58.8,29.78,WSW,250,0.0,0.0,64,0.00,,---,0.00,VWS V14.01,2013-09-06 14:56:00,
2013-09-06 08:01:00,72.8,58.6,29.78,WSW,250,0.0,0.0,61,0.00,,---,0.00,VWS V14.01,2013-09-06 15:01:00,
2013-09-06 08:06:00,73.5,57.8,29.78,WSW,250,0.0,0.0,58,0.00,,---,0.00,VWS V14.01,2013-09-06 15:06:00,
2013-09-06 08:16:00,74.6,58.4,29.78,WSW,250,0.0,0.0,57,0.00,,---,0.00,VWS V14.01,2013-09-06 15:16:00,
2013-09-06 08:21:00,75.1,58.8,29.78,WSW,250,0.0,0.0,57,0.00,,---,0.00,VWS V14.01,2013-09-06 15:21:00,
2013-09-06 08:26:00,75.6,58.3,29.78,WSW,250,0.0,0.0,55,0.00,,---,0.00,VWS V14.01,2013-09-06 15:26:00,
2013-09-06 08:31:00,76.5,58.6,29.77,WSW,250,0.0,0.0,54,0.00,,---,0.00,VWS V14.01,2013-09-06 15:31:00,
2013-09-06 08:36:00,77.2,58.2,29.77,WSW,250,0.0,0.0,52,0.00,,---,0.00,VWS V14.01,2013-09-06 15:36:00,
2013-09-06 08:41:00,77.9,58.3,29.77,WSW,250,0.0,0.0,51,0.00,,---,0.00,VWS V14.01,2013-09-06 15:41:00,
2013-09-06 08:51:00,79.6,59.3,29.77,WSW,250,0.0,0.0,50,0.00,,---,0.00,VWS V14.01,2013-09-06 15:51:00,
2013-09-06 08:56:00,80.1,58.7,29.77,WSW,250,0.0,0.0,48,0.00,,---,0.00,VWS V14.01,2013-09-06 15:56:00,
2013-09-06 09:01:00,80.9,58.2,29.77,WSW,250,0.0,0.0,46,0.00,,---,0.00,VWS V14.01,2013-09-06 16:01:00,
2013-09-06 09:11:00,82.2,59.4,29.77,WSW,248,0.0,0.0,46,0.00,,---,0.00,VWS V14.01,2013-09-06 16:11:00,
2013-09-06 09:16:00,83.4,59.2,29.77,WSW,247,0.0,0.0,44,0.00,,---,0.00,VWS V14.01,2013-09-06 16:16:00,
2013-09-06 09:21:00,84.1,58.5,29.77,WSW,247,0.0,0.0,42,0.00,,---,0.00,VWS V14.01,2013-09-06 16:21:00,
2013-09-06 09:26:00,84.7,57.7,29.77,WSW,247,0.0,0.0,40,0.00,,---,0.00,VWS V14.01,2013-09-06 16:26:00,
2013-09-06 09:31:00,85.5,58.5,29.77,WSW,247,0.0,0.0,40,0.00,,---,0.00,VWS V14.01,2013-09-06 16:31:00,
2013-09-06 09:41:00,86.5,57.9,29.77,WSW,247,0.0,0.0,38,0.00,,---,0.00,VWS V14.01,2013-09-06 16:41:00,
2013-09-06 09:46:00,87.6,57.4,29.77,SSW,213,0.0,0.0,36,0.00,,---,0.00,VWS V14.01,2013-09-06 16:46:00,
2013-09-06 09:51:00,88.4,58.1,29.77,SSW,213,0.0,0.0,36,0.00,,---,0.00,VWS V14.01,2013-09-06 16:51:00,
2013-09-06 09:56:00,88.4,57.3,29.77,SSW,213,0.0,0.0,35,0.00,,---,0.00,VWS V14.01,2013-09-06 16:56:00,
2013-09-06 10:01:00,88.6,58.2,29.77,SSW,213,0.0,0.0,36,0.00,,---,0.00,VWS V14.01,2013-09-06 17:01:00,
2013-09-06 10:06:00,89.3,58.1,29.77,SSW,213,0.0,0.0,35,0.00,,---,0.00,VWS V14.01,2013-09-06 17:06:00,
2013-09-06 10:11:00,89.9,58.6,29.77,West,261,0.0,0.0,35,0.00,,---,0.00,VWS V14.01,2013-09-06 17:11:00,
2013-09-06 10:16:00,90.7,59.3,29.77,West,260,0.0,0.0,35,0.00,,---,0.00,VWS V14.01,2013-09-06 17:16:00,
2013-09-06 10:21:00,91.6,59.3,29.77,WSW,257,0.0,0.0,34,0.00,,---,0.00,VWS V14.01,2013-09-06 17:21:00,
2013-09-06 10:26:00,92.1,58.9,29.77,WSW,257,0.0,0.0,33,0.00,,---,0.00,VWS V14.01,2013-09-06 17:26:00,
2013-09-06 10:31:00,92.7,59.4,29.76,WSW,254,0.0,0.0,33,0.00,,---,0.00,VWS V14.01,2013-09-06 17:31:00,
2013-09-06 10:36:00,93.4,59.2,29.76,WSW,254,0.0,0.0,32,0.00,,---,0.00,VWS V14.01,2013-09-06 17:36:00,
2013-09-06 10:46:00,94.0,61.4,29.76,WSW,251,0.0,0.0,34,0.00,,---,0.00,VWS V14.01,2013-09-06 17:46:00,
2013-09-06 10:51:00,94.0,60.5,29.76,WSW,251,0.0,0.0,33,0.00,,---,0.00,VWS V14.01,2013-09-06 17:51:00,
2013-09-06 10:56:00,94.7,61.2,29.76,SW,227,0.0,0.0,33,0.00,,---,0.00,VWS V14.01,2013-09-06 17:56:00,
2013-09-06 11:01:00,95.9,60.4,29.76,South,178,0.0,2.0,31,0.00,,---,0.00,VWS V14.01,2013-09-06 18:01:00,
2013-09-06 11:06:00,96.3,60.8,29.76,WSW,244,0.0,1.0,31,0.00,,---,0.00,VWS V14.01,2013-09-06 18:06:00,
2013-09-06 11:16:00,96.6,61.0,29.76,SW,236,0.0,2.0,31,0.00,,---,0.00,VWS V14.01,2013-09-06 18:16:00,
2013-09-06 11:21:00,96.8,62.1,29.76,WNW,288,0.0,3.0,32,0.00,,---,0.00,VWS V14.01,2013-09-06 18:21:00,
2013-09-06 11:26:00,97.1,60.5,29.76,SW,223,3.0,3.0,30,0.00,,---,0.00,VWS V14.01,2013-09-06 18:26:00,
2013-09-06 11:31:00,97.3,59.8,29.75,WSW,248,1.0,5.0,29,0.00,,---,0.00,VWS V14.01,2013-09-06 18:31:00,
2013-09-06 11:36:00,97.5,60.9,29.75,SW,236,0.0,2.0,30,0.00,,---,0.00,VWS V14.01,2013-09-06 18:36:00,
2013-09-06 11:41:00,98.2,61.5,29.75,SW,233,0.0,3.0,30,0.00,,---,0.00,VWS V14.01,2013-09-06 18:41:00,
2013-09-06 11:46:00,98.5,62.7,29.75,WSW,247,0.0,5.0,31,0.00,,---,0.00,VWS V14.01,2013-09-06 18:46:00,
2013-09-06 11:51:00,98.7,62.8,29.75,SW,230,1.0,2.0,31,0.00,,---,0.00,VWS V14.01,2013-09-06 18:51:00,
2013-09-06 12:01:00,98.2,62.4,29.75,WSW,240,0.0,6.0,31,0.00,,---,0.00,VWS V14.01,2013-09-06 19:01:00,
2013-09-06 12:11:00,98.7,62.8,29.75,SSW,210,1.0,6.0,31,0.00,,---,0.00,VWS V14.01,2013-09-06 19:11:00,
2013-09-06 12:16:00,99.0,64.0,29.75,SW,232,1.0,4.0,32,0.00,,---,0.00,VWS V14.01,2013-09-06 19:16:00,
2013-09-06 12:21:00,98.7,62.8,29.75,WSW,247,2.0,5.0,31,0.00,,---,0.00,VWS V14.01,2013-09-06 19:21:00,
2013-09-06 12:26:00,99.0,62.2,29.75,SSW,209,0.0,6.0,30,0.00,,---,0.00,VWS V14.01,2013-09-06 19:26:00,
2013-09-06 12:31:00,99.4,62.5,29.75,SSW,212,0.0,2.0,30,0.00,,---,0.00,VWS V14.01,2013-09-06 19:31:00,
2013-09-06 12:41:00,99.9,62.9,29.75,South,184,2.0,3.0,30,0.00,,---,0.00,VWS V14.01,2013-09-06 19:41:00,
2013-09-06 12:46:00,99.9,62.9,29.74,SSW,205,0.0,2.0,30,0.00,,---,0.00,VWS V14.01,2013-09-06 19:46:00,
2013-09-06 12:51:00,100.2,60.2,29.74,SW,220,0.0,5.0,27,0.00,,---,0.00,VWS V14.01,2013-09-06 19:51:00,
2013-09-06 13:01:00,101.0,59.8,29.73,South,189,2.0,6.0,26,0.00,,---,0.00,VWS V14.01,2013-09-06 20:01:00,
2013-09-06 13:06:00,100.4,59.3,29.73,WSW,248,2.0,7.0,26,0.00,,---,0.00,VWS V14.01,2013-09-06 20:06:00,
2013-09-06 13:11:00,101.5,60.3,29.73,SSW,198,0.0,6.0,26,0.00,,---,0.00,VWS V14.01,2013-09-06 20:11:00,
2013-09-06 13:21:00,101.7,59.3,29.73,SW,223,2.0,8.0,25,0.00,,---,0.00,VWS V14.01,2013-09-06 20:21:00,
2013-09-06 13:26:00,102.3,59.8,29.73,WSW,240,3.0,7.0,25,0.00,,---,0.00,VWS V14.01,2013-09-06 20:26:00,
2013-09-06 13:36:00,101.5,60.3,29.72,SSW,209,0.0,12.0,26,0.00,,---,0.00,VWS V14.01,2013-09-06 20:36:00,
2013-09-06 13:41:00,101.7,60.4,29.72,WSW,248,3.0,8.0,26,0.00,,---,0.00,VWS V14.01,2013-09-06 20:41:00,
2013-09-06 13:51:00,101.0,59.8,29.72,SW,232,1.0,10.0,26,0.00,,---,0.00,VWS V14.01,2013-09-06 20:51:00,
2013-09-06 13:56:00,101.0,59.8,29.72,SW,222,3.0,9.0,26,0.00,,---,0.00,VWS V14.01,2013-09-06 20:56:00,
2013-09-06 14:06:00,101.5,60.3,29.71,West,261,0.0,6.0,26,0.00,,---,0.00,VWS V14.01,2013-09-06 21:06:00,
2013-09-06 14:11:00,101.7,61.5,29.71,West,280,1.0,10.0,27,0.00,,---,0.00,VWS V14.01,2013-09-06 21:11:00,
2013-09-06 14:16:00,101.2,58.9,29.71,West,280,0.0,7.0,25,0.00,,---,0.00,VWS V14.01,2013-09-06 21:16:00,
2013-09-06 14:26:00,101.2,60.0,29.71,SW,219,3.0,11.0,26,0.00,,---,0.00,VWS V14.01,2013-09-06 21:26:00,
2013-09-06 14:31:00,100.7,59.6,29.70,West,265,2.0,12.0,26,0.00,,---,0.00,VWS V14.01,2013-09-06 21:31:00,
2013-09-06 14:41:00,100.7,58.5,29.70,WSW,241,2.0,8.0,25,0.00,,---,0.00,VWS V14.01,2013-09-06 21:41:00,
2013-09-06 14:46:00,101.2,60.0,29.70,West,274,3.0,12.0,26,0.00,,---,0.00,VWS V14.01,2013-09-06 21:46:00,
2013-09-06 14:51:00,101.5,61.3,29.70,SW,236,1.0,8.0,27,0.00,,---,0.00,VWS V14.01,2013-09-06 21:51:00,
2013-09-06 15:01:00,100.7,58.5,29.70,West,281,1.0,10.0,25,0.00,,---,0.00,VWS V14.01,2013-09-06 22:01:00,
2013-09-06 15:11:00,100.4,58.2,29.70,WNW,285,1.0,7.0,25,0.00,,---,0.00,VWS V14.01,2013-09-06 22:11:00,
2013-09-06 15:16:00,100.2,58.1,29.69,WSW,246,6.0,10.0,25,0.00,,---,0.00,VWS V14.01,2013-09-06 22:16:00,
2013-09-06 15:21:00,99.7,56.5,29.69,WSW,241,10.0,12.0,24,0.00,,---,0.00,VWS V14.01,2013-09-06 22:21:00,
2013-09-06 15:26:00,99.7,57.7,29.69,SSW,200,3.0,10.0,25,0.00,,---,0.00,VWS V14.01,2013-09-06 22:26:00,
2013-09-06 15:31:00,99.7,57.7,29.69,West,267,0.0,11.0,25,0.00,,---,0.00,VWS V14.01,2013-09-06 22:31:00,
2013-09-06 15:41:00,98.7,54.5,29.69,WSW,250,1.0,12.0,23,0.00,,---,0.00,VWS V14.01,2013-09-06 22:41:00,
2013-09-06 15:51:00,98.0,55.1,29.69,SW,233,2.0,13.0,24,0.00,,---,0.00,VWS V14.01,2013-09-06 22:51:00,
2013-09-06 16:01:00,97.8,53.8,29.69,South,178,0.0,13.0,23,0.00,,---,0.00,VWS V14.01,2013-09-06 23:01:00,
2013-09-06 16:06:00,97.3,53.3,29.69,WSW,250,5.0,16.0,23,0.00,,---,0.00,VWS V14.01,2013-09-06 23:06:00,
2013-09-06 16:11:00,97.3,54.5,29.69,SSW,195,0.0,11.0,24,0.00,,---,0.00,VWS V14.01,2013-09-06 23:11:00,
2013-09-06 16:21:00,97.1,54.3,29.69,WSW,253,5.0,16.0,24,0.00,,---,0.00,VWS V14.01,2013-09-06 23:21:00,
2013-09-06 16:31:00,96.8,54.1,29.69,West,260,5.0,12.0,24,0.00,,---,0.00,VWS V14.01,2013-09-06 23:31:00,
2013-09-06 16:36:00,96.8,54.1,29.69,WSW,237,0.0,12.0,24,0.00,,---,0.00,VWS V14.01,2013-09-06 23:36:00,
2013-09-06 16:41:00,96.6,53.9,29.69,WSW,246,0.0,8.0,24,0.00,,---,0.00,VWS V14.01,2013-09-06 23:41:00,
2013-09-06 16:46:00,96.3,53.7,29.69,SW,215,9.0,9.0,24,0.00,,---,0.00,VWS V14.01,2013-09-06 23:46:00,
2013-09-06 16:51:00,96.3,54.8,29.69,SW,220,5.0,12.0,25,0.00,,---,0.00,VWS V14.01,2013-09-06 23:51:00,
2013-09-06 17:02:00,95.9,55.5,29.69,West,261,0.0,12.0,26,0.00,,---,0.00,VWS V14.01,2013-09-07 00:02:00,
2013-09-06 17:11:00,95.4,55.1,29.69,SW,223,0.0,7.0,26,0.00,,---,0.00,VWS V14.01,2013-09-07 00:11:00,
2013-09-06 17:16:00,94.7,55.6,29.69,SW,219,0.0,7.0,27,0.00,,---,0.00,VWS V14.01,2013-09-07 00:16:00,
2013-09-06 17:21:00,94.5,55.4,29.69,WSW,240,0.0,5.0,27,0.00,,---,0.00,VWS V14.01,2013-09-07 00:21:00,
2013-09-06 17:26:00,94.7,55.6,29.69,SSW,198,0.0,8.0,27,0.00,,---,0.00,VWS V14.01,2013-09-07 00:26:00,
2013-09-06 17:31:00,94.5,57.4,29.69,South,169,0.0,7.0,29,0.00,,---,0.00,VWS V14.01,2013-09-07 00:31:00,
2013-09-06 17:41:00,93.8,58.6,29.69,SSW,193,0.0,8.0,31,0.00,,---,0.00,VWS V14.01,2013-09-07 00:41:00,
2013-09-06 17:46:00,93.6,59.3,29.69,SW,229,0.0,6.0,32,0.00,,---,0.00,VWS V14.01,2013-09-07 00:46:00,
2013-09-06 17:51:00,93.4,60.9,29.69,SW,232,0.0,4.0,34,0.00,,---,0.00,VWS V14.01,2013-09-07 00:51:00,
2013-09-06 18:01:00,93.2,61.5,29.69,SSW,192,0.0,5.0,35,0.00,,---,0.00,VWS V14.01,2013-09-07 01:01:00,
2013-09-06 18:11:00,93.2,61.5,29.69,SSW,196,0.0,0.0,35,0.00,,---,0.00,VWS V14.01,2013-09-07 01:11:00,
2013-09-06 18:16:00,92.9,61.2,29.69,SSW,199,0.0,0.0,35,0.00,,---,0.00,VWS V14.01,2013-09-07 01:16:00,
2013-09-06 18:21:00,91.8,61.1,29.69,West,270,0.0,0.0,36,0.00,,---,0.00,VWS V14.01,2013-09-07 01:21:00,
2013-09-06 18:26:00,90.7,60.9,29.69,West,274,0.0,0.0,37,0.00,,---,0.00,VWS V14.01,2013-09-07 01:26:00,
2013-09-06 18:36:00,88.8,60.7,29.69,WSW,243,0.0,0.0,39,0.00,,---,0.00,VWS V14.01,2013-09-07 01:36:00,
2013-09-06 18:46:00,88.0,61.4,29.69,WSW,241,0.0,0.0,41,0.00,,---,0.00,VWS V14.01,2013-09-07 01:46:00,
2013-09-06 18:56:00,86.5,62.0,29.69,WSW,241,0.0,0.0,44,0.00,,---,0.00,VWS V14.01,2013-09-07 01:56:00,
2013-09-06 19:01:00,85.7,61.9,29.70,WSW,241,0.0,0.0,45,0.00,,---,0.00,VWS V14.01,2013-09-07 02:01:00,
2013-09-06 19:06:00,85.1,62.0,29.70,WSW,241,0.0,0.0,46,0.00,,---,0.00,VWS V14.01,2013-09-07 02:06:00,
2013-09-06 19:11:00,84.5,62.1,29.70,WSW,241,0.0,0.0,47,0.00,,---,0.00,VWS V14.01,2013-09-07 02:11:00,
2013-09-06 19:16:00,84.0,62.2,29.69,WSW,241,0.0,0.0,48,0.00,,---,0.00,VWS V14.01,2013-09-07 02:16:00,
2013-09-06 19:26:00,82.6,62.1,29.69,WSW,241,0.0,0.0,50,0.00,,---,0.00,VWS V14.01,2013-09-07 02:26:00,
2013-09-06 19:31:00,82.2,63.4,29.70,WSW,241,0.0,0.0,53,0.00,,---,0.00,VWS V14.01,2013-09-07 02:31:00,
2013-09-06 19:36:00,81.6,63.4,29.70,WSW,241,0.0,0.0,54,0.00,,---,0.00,VWS V14.01,2013-09-07 02:36:00,
2013-09-06 19:46:00,79.9,63.3,29.71,WSW,241,0.0,0.0,57,0.00,,---,0.00,VWS V14.01,2013-09-07 02:46:00,
2013-09-06 19:56:00,78.8,62.8,29.71,WSW,241,0.0,0.0,58,0.00,,---,0.00,VWS V14.01,2013-09-07 02:56:00,
2013-09-06 20:01:00,78.5,63.0,29.71,WSW,241,0.0,0.0,59,0.00,,---,0.00,VWS V14.01,2013-09-07 03:01:00,
2013-09-06 20:06:00,77.9,62.9,29.71,WSW,241,0.0,0.0,60,0.00,,---,0.00,VWS V14.01,2013-09-07 03:06:00,
2013-09-06 20:11:00,77.6,62.6,29.71,WSW,241,0.0,0.0,60,0.00,,---,0.00,VWS V14.01,2013-09-07 03:11:00,
2013-09-06 20:21:00,76.7,62.2,29.72,WSW,241,0.0,0.0,61,0.00,,---,0.00,VWS V14.01,2013-09-07 03:21:00,
2013-09-06 20:26:00,76.1,61.7,29.72,WSW,241,0.0,0.0,61,0.00,,---,0.00,VWS V14.01,2013-09-07 03:26:00,
2013-09-06 20:31:00,75.8,61.9,29.72,WSW,241,0.0,0.0,62,0.00,,---,0.00,VWS V14.01,2013-09-07 03:31:00,
2013-09-06 20:36:00,75.4,61.5,29.72,WSW,241,0.0,0.0,62,0.00,,---,0.00,VWS V14.01,2013-09-07 03:36:00,
2013-09-06 20:41:00,75.1,61.7,29.72,WSW,241,0.0,0.0,63,0.00,,---,0.00,VWS V14.01,2013-09-07 03:41:00,
2013-09-06 20:46:00,74.7,61.7,29.73,WSW,241,0.0,0.0,64,0.00,,---,0.00,VWS V14.01,2013-09-07 03:46:00,
2013-09-06 20:51:00,74.2,61.2,29.73,WSW,241,0.0,0.0,64,0.00,,---,0.00,VWS V14.01,2013-09-07 03:51:00,
2013-09-06 21:01:00,73.5,61.0,29.73,WSW,241,0.0,0.0,65,0.00,,---,0.00,VWS V14.01,2013-09-07 04:01:00,
2013-09-06 21:06:00,73.0,61.0,29.73,WSW,241,0.0,0.0,66,0.00,,---,0.00,VWS V14.01,2013-09-07 04:06:00,
2013-09-06 21:11:00,72.7,60.7,29.73,WSW,241,0.0,0.0,66,0.00,,---,0.00,VWS V14.01,2013-09-07 04:11:00,
2013-09-06 21:16:00,72.3,60.3,29.73,WSW,241,0.0,0.0,66,0.00,,---,0.00,VWS V14.01,2013-09-07 04:16:00,
2013-09-06 21:26:00,71.8,60.3,29.73,WSW,241,0.0,0.0,67,0.00,,---,0.00,VWS V14.01,2013-09-07 04:26:00,
2013-09-06 21:31:00,71.5,60.4,29.74,WSW,241,0.0,0.0,68,0.00,,---,0.00,VWS V14.01,2013-09-07 04:31:00,
2013-09-06 21:36:00,71.3,60.2,29.74,WSW,241,0.0,0.0,68,0.00,,---,0.00,VWS V14.01,2013-09-07 04:36:00,
2013-09-06 21:46:00,70.8,60.1,29.73,WSW,241,0.0,0.0,69,0.00,,---,0.00,VWS V14.01,2013-09-07 04:46:00,
2013-09-06 21:51:00,70.4,60.2,29.73,WSW,241,0.0,0.0,70,0.00,,---,0.00,VWS V14.01,2013-09-07 04:51:00,
2013-09-06 21:56:00,69.9,59.7,29.73,WSW,241,0.0,0.0,70,0.00,,---,0.00,VWS V14.01,2013-09-07 04:56:00,
2013-09-06 22:06:00,69.4,59.6,29.74,WSW,241,0.0,0.0,71,0.00,,---,0.00,VWS V14.01,2013-09-07 05:06:00,
2013-09-06 22:11:00,69.1,59.3,29.74,WSW,241,0.0,0.0,71,0.00,,---,0.00,VWS V14.01,2013-09-07 05:11:00,
2013-09-06 22:16:00,68.9,59.1,29.74,WSW,241,0.0,0.0,71,0.00,,---,0.00,VWS V14.01,2013-09-07 05:16:00,
2013-09-06 22:21:00,68.8,59.4,29.74,WSW,241,0.0,0.0,72,0.00,,---,0.00,VWS V14.01,2013-09-07 05:21:00,
2013-09-06 22:26:00,68.6,59.2,29.74,WSW,241,0.0,0.0,72,0.00,,---,0.00,VWS V14.01,2013-09-07 05:26:00,
2013-09-06 22:31:00,68.4,59.0,29.74,WSW,241,0.0,0.0,72,0.00,,---,0.00,VWS V14.01,2013-09-07 05:31:00,
2013-09-06 22:36:00,68.1,59.1,29.74,WSW,241,0.0,0.0,73,0.00,,---,0.00,VWS V14.01,2013-09-07 05:36:00,
2013-09-06 22:41:00,67.9,58.9,29.74,WSW,241,0.0,0.0,73,0.00,,---,0.00,VWS V14.01,2013-09-07 05:41:00,
2013-09-06 22:46:00,67.8,58.8,29.74,WSW,241,0.0,0.0,73,0.00,,---,0.00,VWS V14.01,2013-09-07 05:46:00,
2013-09-06 22:56:00,67.4,58.8,29.74,WSW,241,0.0,0.0,74,0.00,,---,0.00,VWS V14.01,2013-09-07 05:56:00,
2013-09-06 23:01:00,67.3,58.7,29.74,WSW,241,0.0,0.0,74,0.00,,---,0.00,VWS V14.01,2013-09-07 06:01:00,
2013-09-06 23:06:00,67.1,58.5,29.74,WSW,241,0.0,0.0,74,0.00,,---,0.00,VWS V14.01,2013-09-07 06:06:00,
2013-09-06 23:16:00,66.8,58.6,29.74,WSW,241,0.0,0.0,75,0.00,,---,0.00,VWS V14.01,2013-09-07 06:16:00,
2013-09-06 23:26:00,66.4,58.2,29.74,WSW,241,0.0,0.0,75,0.00,,---,0.00,VWS V14.01,2013-09-07 06:26:00,
2013-09-06 23:31:00,66.1,58.3,29.73,WSW,241,0.0,0.0,76,0.00,,---,0.00,VWS V14.01,2013-09-07 06:31:00,
2013-09-06 23:36:00,66.0,58.2,29.73,WSW,241,0.0,0.0,76,0.00,,---,0.00,VWS V14.01,2013-09-07 06:36:00,
2013-09-06 23:46:00,65.6,57.8,29.73,WSW,241,0.0,0.0,76,0.00,,---,0.00,VWS V14.01,2013-09-07 06:46:00,
2013-09-06 23:51:00,65.5,57.7,29.73,WSW,241,0.0,0.0,76,0.00,,---,0.00,VWS V14.01,2013-09-07 06:51:00,
2013-09-06 23:56:00,65.3,57.5,29.73,WSW,241,0.0,0.0,76,0.00,,---,0.00,VWS V14.01,2013-09-07 06:56:00,